Time;durP1;ratioP1;P1;durP2;ratioP2;P2;SDS_P1;SDS_P2;PMS_P1;PMS_P2;Temp;Humidity;BMP_temperature;BMP_pressure;BME280_temperature;BME280_humidity;BME280_pressure;Samples;Min_cycle;Max_cycle;Signal;HPM_P1;HPM_P2
2024/01/19 00:00:25;;;;;;;2.63;2.17;;;;;;;15.25;31.10;99831.38;7392827;19;20025;-86
2024/01/19 00:02:52;;;;;;;7.10;2.05;;;;;;;14.45;31.72;99825.31;7390895;19;20437;-85
2024/01/19 00:05:19;;;;;;;10.73;2.40;;;;;;;15.39;30.75;99827.59;7392503;19;20036;-85
2024/01/19 00:07:45;;;;;;;7.53;2.20;;;;;;;13.56;32.94;99835.91;7396937;19;20018;-85
2024/01/19 00:10:12;;;;;;;12.10;2.13;;;;;;;14.27;32.17;99828.50;7393048;19;20039;-85
2024/01/19 00:12:38;;;;;;;6.55;0.70;;;;;;;12.31;34.19;99843.19;7391080;19;20022;-85
2024/01/19 00:15:08;;;;;;;0.30;0.30;;;;;;;15.99;30.09;99837.28;7396349;19;20021;-85
2024/01/19 00:17:38;;;;;;;0.75;0.75;;;;;;;16.79;29.67;99832.44;7392968;19;20591;-85
2024/01/19 00:20:08;;;;;;;0.98;0.85;;;;;;;15.12;31.28;99832.66;7391412;19;20007;-85
2024/01/19 00:22:34;;;;;;;0.33;0.20;;;;;;;19.03;27.69;99826.53;7390938;19;20014;-82
2024/01/19 00:25:00;;;;;;;1.85;0.60;;;;;;;17.51;29.01;99834.84;7396432;19;20018;-85
2024/01/19 00:27:27;;;;;;;0.70;0.70;;;;;;;17.09;29.16;99844.56;7391554;19;20074;-85
2024/01/19 00:29:53;;;;;;;1.75;0.73;;;;;;;17.20;28.84;99844.50;7393245;19;20045;-85
2024/01/19 00:32:19;;;;;;;0.63;0.63;;;;;;;17.17;29.05;99842.75;7391487;19;20372;-84
2024/01/19 00:34:45;;;;;;;0.80;0.80;;;;;;;17.42;28.57;99838.72;7395944;19;20011;-85
2024/01/19 00:37:11;;;;;;;1.65;0.65;;;;;;;16.80;29.58;99848.06;7390171;19;20409;-85
2024/01/19 00:39:37;;;;;;;0.28;0.28;;;;;;;17.05;29.06;99844.84;7392366;19;20018;-83
2024/01/19 00:42:03;;;;;;;0.65;0.60;;;;;;;17.47;29.10;99849.19;7391334;19;20014;-84
2024/01/19 00:44:29;;;;;;;0.40;0.40;;;;;;;17.12;29.57;99852.75;7391521;19;20023;-83
2024/01/19 00:46:55;;;;;;;0.50;0.50;;;;;;;16.37;30.07;99854.03;7390754;19;20019;-82
2024/01/19 00:49:22;;;;;;;0.80;0.65;;;;;;;20.47;26.60;99843.91;7390397;19;20395;-83
2024/01/19 00:51:48;;;;;;;0.50;0.50;;;;;;;20.13;26.64;99845.84;7390511;19;20025;-83
2024/01/19 00:54:14;;;;;;;0.22;0.22;;;;;;;19.84;27.00;99844.78;7388059;19;20018;-83
2024/01/19 00:56:41;;;;;;;0.70;0.70;;;;;;;19.22;27.64;99847.03;7387928;19;20042;-83
2024/01/19 00:59:07;;;;;;;0.30;0.30;;;;;;;18.18;28.06;99858.31;7391299;19;20014;-83
2024/01/19 01:01:33;;;;;;;0.38;0.38;;;;;;;16.73;29.43;99865.47;7391121;19;20022;-82
2024/01/19 01:04:01;;;;;;;0.45;0.45;;;;;;;14.81;31.57;99868.53;7388837;19;20022;-83
2024/01/19 01:06:28;;;;;;;0.38;0.28;;;;;;;15.03;31.78;99869.34;7390767;19;20026;-83
2024/01/19 01:08:54;;;;;;;0.20;0.20;;;;;;;14.30;32.03;99880.75;7389979;19;20402;-82
2024/01/19 01:11:21;;;;;;;0.30;0.30;;;;;;;13.81;32.79;99879.13;7390820;19;20011;-83
2024/01/19 01:13:47;;;;;;;0.68;0.68;;;;;;;13.44;33.04;99884.66;7388474;19;20014;-83
2024/01/19 01:16:13;;;;;;;0.50;0.50;;;;;;;14.01;32.44;99884.59;7394090;19;20022;-83
2024/01/19 01:18:40;;;;;;;0.20;0.20;;;;;;;15.15;31.20;99887.75;7390174;19;20433;-83
2024/01/19 01:21:06;;;;;;;0.40;0.40;;;;;;;14.94;31.31;99886.41;7389934;19;20041;-83
2024/01/19 01:23:33;;;;;;;1.38;0.73;;;;;;;12.64;33.10;99899.50;7388940;19;20034;-83
2024/01/19 01:25:59;;;;;;;0.38;0.38;;;;;;;12.86;33.33;99899.75;7393922;19;20010;-83
2024/01/19 01:28:25;;;;;;;0.28;0.28;;;;;;;12.17;34.46;99903.41;7391860;19;20342;-83
2024/01/19 01:30:51;;;;;;;0.22;0.22;;;;;;;12.25;33.92;99900.22;7392449;19;20019;-83
2024/01/19 01:33:18;;;;;;;0.60;0.60;;;;;;;14.93;30.90;99886.91;7388115;19;20493;-83
2024/01/19 01:35:44;;;;;;;1.02;0.95;;;;;;;15.35;30.57;99888.81;7392019;19;20591;-83
2024/01/19 01:38:10;;;;;;;0.43;0.43;;;;;;;15.55;29.99;99883.75;7394805;19;20023;-83
2024/01/19 01:40:36;;;;;;;1.35;0.90;;;;;;;16.04;29.49;99898.31;7390799;19;20022;-83
2024/01/19 01:43:05;;;;;;;17.80;1.85;;;;;;;16.15;29.48;99896.28;7387689;19;20086;-83
2024/01/19 01:45:31;;;;;;;8.88;1.40;;;;;;;16.26;29.23;99895.47;7392160;19;20026;-83
2024/01/19 01:47:58;;;;;;;5.90;1.30;;;;;;;16.32;28.75;99902.63;7390005;19;20456;-83
2024/01/19 01:50:24;;;;;;;0.77;0.40;;;;;;;16.47;28.35;99905.91;7388051;19;20408;-83
2024/01/19 01:52:53;;;;;;;12.93;0.93;;;;;;;16.63;28.18;99905.13;7389080;19;20113;-83
2024/01/19 01:55:19;;;;;;;0.22;0.22;;;;;;;16.45;28.53;99905.66;7391711;19;20085;-83
2024/01/19 01:57:46;;;;;;;0.30;0.30;;;;;;;16.07;29.04;99909.28;7390298;19;20476;-83
2024/01/19 02:00:14;;;;;;;0.45;0.45;;;;;;;19.28;26.53;99912.66;7389036;19;20011;-83
2024/01/19 02:02:40;;;;;;;0.10;0.10;;;;;;;23.36;23.11;99906.34;7387515;19;20015;-83
2024/01/19 02:05:06;;;;;;;0.43;0.43;;;;;;;22.23;23.59;99905.63;7391517;19;20337;-84
2024/01/19 02:07:33;;;;;;;3.22;1.10;;;;;;;22.04;23.96;99911.53;7391036;19;20097;-83
2024/01/19 02:09:59;;;;;;;0.45;0.45;;;;;;;22.56;23.44;99921.78;7390675;19;20024;-85
2024/01/19 02:12:25;;;;;;;0.55;0.55;;;;;;;23.24;23.16;99913.63;7389076;19;20029;-84
2024/01/19 02:14:52;;;;;;;0.57;0.57;;;;;;;22.21;23.27;99913.94;7391281;19;20014;-84
2024/01/19 02:17:18;;;;;;;0.60;0.60;;;;;;;21.96;23.67;99921.28;7386450;19;20051;-83
2024/01/19 02:19:44;;;;;;;6.18;1.27;;;;;;;19.77;25.09;99926.63;7390391;19;20018;-84
2024/01/19 02:22:10;;;;;;;0.55;0.55;;;;;;;18.55;26.43;99926.16;7388278;19;20037;-84
2024/01/19 02:24:36;;;;;;;0.30;0.30;;;;;;;19.27;26.13;99919.63;7387102;19;20010;-84
2024/01/19 02:27:03;;;;;;;0.50;0.50;;;;;;;18.55;26.90;99931.00;7389789;19;20346;-84
2024/01/19 02:29:29;;;;;;;0.20;0.20;;;;;;;18.05;27.81;99949.13;7388736;19;20082;-84
2024/01/19 02:38:31;;;;;;;1.20;1.13;;;;;;;19.21;27.30;99940.78;7391704;19;20033;-49
2024/01/19 02:40:57;;;;;;;0.50;0.50;;;;;;;19.27;26.88;99939.41;7390756;19;20022;-91
2024/01/19 02:43:23;;;;;;;0.38;0.38;;;;;;;19.40;27.01;99936.69;7391955;19;20030;-91
2024/01/19 02:45:49;;;;;;;1.00;0.77;;;;;;;19.15;27.20;99943.66;7395104;19;20025;-91
2024/01/19 02:48:15;;;;;;;0.10;0.10;;;;;;;18.52;27.91;99949.75;7391436;19;20019;-91
2024/01/19 02:50:42;;;;;;;0.47;0.47;;;;;;;20.82;26.00;99942.53;7392188;19;20038;-91
2024/01/19 02:53:08;;;;;;;0.80;0.80;;;;;;;19.89;26.86;99942.09;7391225;19;20029;-91
2024/01/19 02:55:34;;;;;;;0.32;0.32;;;;;;;21.73;25.46;99950.13;7390544;19;20027;-91
2024/01/19 02:58:00;;;;;;;0.88;0.88;;;;;;;21.88;25.11;99943.88;7395230;19;20023;-91
2024/01/19 03:00:26;;;;;;;0.63;0.63;;;;;;;22.21;24.84;99943.06;7393193;19;20015;-91
2024/01/19 03:02:52;;;;;;;1.48;0.50;;;;;;;21.84;24.88;99949.91;7392510;19;20014;-91
2024/01/19 03:05:19;;;;;;;1.02;1.02;;;;;;;20.63;25.98;99956.03;7391203;19;20457;-92
2024/01/19 03:07:45;;;;;;;0.52;0.52;;;;;;;20.28;26.24;99950.75;7393847;19;20010;-90
2024/01/19 03:10:11;;;;;;;0.32;0.25;;;;;;;20.27;26.45;99949.22;7391425;19;20022;-91
2024/01/19 03:12:38;;;;;;;0.70;0.70;;;;;;;20.43;26.06;99951.00;7390958;19;20049;-91
2024/01/19 03:15:05;;;;;;;0.20;0.20;;;;;;;22.28;25.02;99945.22;7392214;19;20014;-91
2024/01/19 03:17:32;;;;;;;0.43;0.30;;;;;;;23.57;24.04;99932.56;7396811;19;20088;-91
2024/01/19 03:19:59;;;;;;;2.92;1.35;;;;;;;23.82;23.52;99933.56;7399683;19;20469;-91
2024/01/19 03:22:27;;;;;;;0.60;0.60;;;;;;;21.20;25.54;99939.50;7398029;19;20026;-91
2024/01/19 03:24:53;;;;;;;0.40;0.40;;;;;;;18.23;28.03;99944.13;7398849;19;20018;-90
2024/01/19 03:27:19;;;;;;;0.30;0.30;;;;;;;18.16;28.10;99934.19;7400215;19;20006;-91
2024/01/19 03:29:47;;;;;;;1.75;1.33;;;;;;;17.99;28.29;99942.78;7398826;19;20010;-91
2024/01/19 03:32:13;;;;;;;0.38;0.38;;;;;;;17.90;28.39;99945.16;7399731;19;20371;-91
2024/01/19 03:34:40;;;;;;;0.10;0.10;;;;;;;18.22;27.88;99942.56;7398774;19;20023;-91
2024/01/19 03:37:06;;;;;;;0.43;0.43;;;;;;;18.31;28.06;99945.06;7397570;19;20081;-91
2024/01/19 03:39:33;;;;;;;0.30;0.30;;;;;;;16.78;29.40;99954.69;7401038;19;20025;-90
2024/01/19 03:42:00;;;;;;;0.30;0.30;;;;;;;17.69;28.64;99949.66;7397744;19;20019;-90
2024/01/19 03:44:27;;;;;;;0.40;0.40;;;;;;;17.45;28.66;99950.31;7398294;19;20384;-91
2024/01/19 03:46:53;;;;;;;0.30;0.30;;;;;;;16.68;29.08;99952.16;7400077;19;20018;-90
2024/01/19 03:49:19;;;;;;;0.28;0.28;;;;;;;15.99;30.26;99958.84;7400680;19;20222;-80
2024/01/19 03:52:07;;;;;;;0.20;0.20;;;;;;;17.13;28.46;99957.63;7394955;19;20015;-89
2024/01/19 03:54:33;;;;;;;0.40;0.40;;;;;;;17.52;28.68;99963.09;7397274;19;20035;-89
2024/01/19 03:57:03;;;;;;;2.47;1.08;;;;;;;18.04;27.56;99956.06;7394407;19;20019;-88
2024/01/19 03:59:29;;;;;;;0.47;0.38;;;;;;;17.96;27.95;99952.28;7396005;19;20021;-87
2024/01/19 04:01:56;;;;;;;0.70;0.70;;;;;;;17.37;27.95;99954.94;7396619;19;20006;-90
2024/01/19 04:04:23;;;;;;;0.25;0.25;;;;;;;17.35;27.98;99954.69;7397214;19;20011;-91
2024/01/19 04:06:49;;;;;;;0.40;0.40;;;;;;;16.02;29.30;99957.81;7395930;19;20032;-91
2024/01/19 04:09:18;;;;;;;0.75;0.52;;;;;;;15.90;29.42;99967.50;7397399;19;20469;-91
2024/01/19 04:11:45;;;;;;;0.80;0.73;;;;;;;14.02;31.27;99974.97;7395990;19;20023;-90
2024/01/19 04:14:11;;;;;;;4.60;0.98;;;;;;;14.29;31.14;99977.28;7394040;19;20018;-91
2024/01/19 04:16:38;;;;;;;0.35;0.35;;;;;;;14.05;31.17;99982.41;7394224;19;20110;-92
2024/01/19 04:19:05;;;;;;;0.52;0.52;;;;;;;13.91;31.39;99978.44;7396839;19;20014;-92
2024/01/19 04:21:31;;;;;;;0.40;0.40;;;;;;;13.67;31.46;99981.53;7397069;19;20025;-92
2024/01/19 04:23:58;;;;;;;0.70;0.70;;;;;;;13.67;31.77;99987.13;7394939;19;20048;-91
2024/01/19 04:26:25;;;;;;;17.90;1.55;;;;;;;16.15;29.18;99971.38;7396254;19;20508;-91
2024/01/19 04:28:51;;;;;;;0.30;0.30;;;;;;;17.93;27.37;99975.88;7394190;19;20014;-91
2024/01/19 04:31:17;;;;;;;3.10;1.23;;;;;;;18.07;26.96;99974.75;7397077;19;20472;-92
2024/01/19 04:33:43;;;;;;;0.38;0.38;;;;;;;17.58;27.33;99975.84;7394811;19;20007;-92
2024/01/19 04:36:09;;;;;;;0.52;0.52;;;;;;;17.07;28.18;99976.56;7397096;19;20026;-92
2024/01/19 04:38:35;;;;;;;0.50;0.50;;;;;;;15.38;29.55;99981.16;7395796;19;20034;-91
2024/01/19 04:41:02;;;;;;;0.63;0.63;;;;;;;14.14;30.58;99990.63;7396161;19;20017;-92
2024/01/19 04:43:30;;;;;;;0.52;0.52;;;;;;;13.75;31.19;99987.47;7394889;19;20014;-92
2024/01/19 04:45:56;;;;;;;0.45;0.45;;;;;;;14.58;29.83;99985.38;7428212;19;20047;-91
2024/01/19 04:48:22;;;;;;;0.60;0.60;;;;;;;15.99;28.90;99981.31;7425150;19;20002;-91
2024/01/19 04:50:48;;;;;;;0.60;0.60;;;;;;;17.83;27.30;99983.13;7426269;19;20051;-90
2024/01/19 04:53:14;;;;;;;0.20;0.20;;;;;;;16.66;28.00;99982.06;7424718;19;20101;-91
2024/01/19 04:55:40;;;;;;;0.43;0.43;;;;;;;15.81;28.54;99984.59;7427776;19;20023;-90
2024/01/19 04:58:06;;;;;;;0.50;0.50;;;;;;;15.96;28.48;99999.16;7426560;19;20039;-92
2024/01/19 05:00:32;;;;;;;0.38;0.38;;;;;;;15.73;28.88;99986.38;7421254;19;20685;-91
2024/01/19 05:03:00;;;;;;;0.30;0.30;;;;;;;15.54;28.88;99996.56;7428406;19;20046;-91
2024/01/19 05:05:27;;;;;;;0.47;0.47;;;;;;;15.37;28.96;99998.50;7424221;19;20010;-90
2024/01/19 05:07:54;;;;;;;0.63;0.63;;;;;;;15.24;29.02;99998.22;7422305;19;20010;-92
2024/01/19 05:10:20;;;;;;;0.40;0.40;;;;;;;15.54;28.90;99996.56;7418116;19;20026;-92
2024/01/19 05:12:46;;;;;;;1.95;1.08;;;;;;;15.71;28.85;100000.16;7399707;19;20302;-91
2024/01/19 05:15:12;;;;;;;0.50;0.50;;;;;;;16.43;27.88;99997.41;7394573;19;20022;-91
2024/01/19 05:17:38;;;;;;;0.30;0.30;;;;;;;15.81;28.58;99995.84;7394999;19;20018;-91
2024/01/19 05:20:05;;;;;;;0.40;0.40;;;;;;;15.64;28.59;99993.00;7394326;19;20435;-91
2024/01/19 05:22:31;;;;;;;0.68;0.68;;;;;;;15.32;29.05;99983.19;7392534;19;20006;-91
2024/01/19 05:24:58;;;;;;;1.08;1.08;;;;;;;14.93;29.33;99994.25;7393414;19;20048;-92
2024/01/19 05:27:24;;;;;;;0.82;0.82;;;;;;;14.97;29.07;99994.78;7395047;19;20017;-92
2024/01/19 05:29:50;;;;;;;0.60;0.60;;;;;;;14.55;29.31;99992.00;7393674;19;20018;-91
2024/01/19 05:32:16;;;;;;;0.60;0.60;;;;;;;14.93;29.00;99994.25;7394164;19;20015;-91
2024/01/19 05:34:44;;;;;;;0.68;0.68;;;;;;;14.76;29.13;99995.41;7395045;19;20014;-91
2024/01/19 05:37:10;;;;;;;0.65;0.65;;;;;;;14.73;29.17;99997.19;7390942;19;20014;-91
2024/01/19 05:39:36;;;;;;;0.80;0.80;;;;;;;15.79;28.11;99992.78;7390295;19;20026;-91
2024/01/19 05:42:02;;;;;;;0.35;0.35;;;;;;;15.88;28.36;99998.16;7390666;19;20404;-93
2024/01/19 05:44:29;;;;;;;0.70;0.70;;;;;;;16.47;27.79;99998.69;7393724;19;20010;-91
2024/01/19 05:46:55;;;;;;;0.85;0.85;;;;;;;16.64;27.51;99993.06;7392217;19;20047;-92
2024/01/19 05:49:21;;;;;;;0.40;0.40;;;;;;;14.75;29.18;100011.47;7392124;19;20018;-91
2024/01/19 05:51:47;;;;;;;0.57;0.57;;;;;;;14.16;29.71;100011.25;7391581;19;20367;-92
2024/01/19 05:54:13;;;;;;;0.20;0.20;;;;;;;16.29;27.84;100010.44;7390443;19;20030;-92
2024/01/19 05:56:39;;;;;;;2.60;1.13;;;;;;;17.01;27.00;100007.56;7391309;19;20109;-91
2024/01/19 05:59:05;;;;;;;0.75;0.75;;;;;;;17.25;26.35;100009.78;7391712;19;20022;-91
2024/01/19 06:01:32;;;;;;;0.40;0.40;;;;;;;19.40;24.64;100012.94;7391598;19;20018;-90
2024/01/19 06:03:58;;;;;;;0.38;0.38;;;;;;;16.76;26.83;100007.88;7390987;19;20002;-87
2024/01/19 06:06:25;;;;;;;0.70;0.70;;;;;;;16.40;26.66;100010.44;7390575;19;20025;-91
2024/01/19 06:08:51;;;;;;;1.67;1.05;;;;;;;16.91;26.46;100017.56;7391071;19;20014;-91
2024/01/19 06:11:17;;;;;;;0.60;0.60;;;;;;;16.83;26.37;100024.25;7391872;19;20018;-90
2024/01/19 06:13:45;;;;;;;0.75;0.75;;;;;;;15.71;27.16;100026.22;7389825;19;20018;-91
2024/01/19 06:16:12;;;;;;;1.10;1.00;;;;;;;15.11;27.86;100030.31;7389506;19;20033;-91
2024/01/19 06:18:38;;;;;;;1.05;0.95;;;;;;;15.42;27.42;100034.25;7390344;19;20029;-91
2024/01/19 06:21:09;;;;;;;0.82;0.82;;;;;;;13.43;29.28;100045.38;7391591;19;20024;-91
2024/01/19 06:23:38;;;;;;;0.75;0.75;;;;;;;12.86;29.68;100047.13;7389378;19;20104;-91
2024/01/19 06:26:11;;;;;;;1.15;1.15;;;;;;;14.13;28.63;100045.88;7394278;19;20023;-91
2024/01/19 06:28:37;;;;;;;0.60;0.60;;;;;;;15.57;27.42;100040.47;7390713;19;20010;-91
2024/01/19 06:31:05;;;;;;;1.85;1.70;;;;;;;15.66;27.02;100038.19;7390423;19;20019;-91
2024/01/19 06:33:31;;;;;;;0.55;0.55;;;;;;;14.23;28.35;100046.44;7388677;19;20022;-91
2024/01/19 06:35:57;;;;;;;4.53;2.35;;;;;;;14.29;28.10;100041.72;7391438;19;20018;-91
2024/01/19 06:38:23;;;;;;;1.95;1.80;;;;;;;14.77;28.45;100048.19;7391319;19;20025;-91
2024/01/19 06:40:50;;;;;;;4.93;1.77;;;;;;;16.97;26.12;100042.84;7390460;19;20343;-91
2024/01/19 06:43:17;;;;;;;0.93;0.82;;;;;;;14.51;28.00;100050.28;7389719;19;20445;-91
2024/01/19 06:45:43;;;;;;;0.80;0.80;;;;;;;13.82;28.81;100053.44;7393134;19;20468;-91
2024/01/19 06:48:09;;;;;;;0.90;0.90;;;;;;;16.31;26.81;100047.22;7390248;19;20117;-90
2024/01/19 06:50:35;;;;;;;0.65;0.65;;;;;;;13.52;29.03;100059.22;7389458;19;20500;-90
2024/01/19 06:53:03;;;;;;;1.75;1.75;;;;;;;13.35;29.04;100063.06;7392773;19;20014;-90
2024/01/19 06:55:29;;;;;;;3.92;2.30;;;;;;;14.90;28.20;100056.94;7396087;19;20018;-90
2024/01/19 06:57:55;;;;;;;1.83;1.70;;;;;;;17.06;25.99;100054.63;7396584;19;20021;-90
2024/01/19 07:00:22;;;;;;;1.48;1.38;;;;;;;18.50;24.82;100058.75;7396342;19;20022;-91
2024/01/19 07:02:48;;;;;;;4.75;2.65;;;;;;;14.04;28.74;100076.06;7400320;19;20468;-90
2024/01/19 07:05:14;;;;;;;3.10;1.85;;;;;;;13.36;29.66;100076.56;7396668;19;20082;-90
2024/01/19 07:07:40;;;;;;;3.17;1.25;;;;;;;14.77;28.03;100064.25;7400525;19;20377;-91
2024/01/19 07:10:06;;;;;;;8.07;2.30;;;;;;;13.44;29.11;100072.09;7397116;19;20018;-90
2024/01/19 07:12:33;;;;;;;1.40;1.40;;;;;;;15.34;27.85;100061.25;7395568;19;20014;-91
2024/01/19 07:14:59;;;;;;;3.03;1.42;;;;;;;13.01;29.48;100080.63;7397709;19;20390;-91
2024/01/19 07:17:25;;;;;;;4.30;3.97;;;;;;;13.84;29.21;100074.06;7397839;19;20355;-90
2024/01/19 07:19:51;;;;;;;5.55;2.08;;;;;;;14.00;28.48;100072.72;7398192;19;20099;-90
2024/01/19 07:22:17;;;;;;;8.05;2.65;;;;;;;15.30;27.40;100077.56;7396780;19;20085;-90
2024/01/19 07:24:43;;;;;;;1.77;1.02;;;;;;;14.10;28.52;100085.28;7398142;19;20026;-90
2024/01/19 07:27:09;;;;;;;1.65;1.35;;;;;;;13.31;29.55;100084.88;7398021;19;20019;-89
2024/01/19 07:29:35;;;;;;;2.35;1.92;;;;;;;13.95;28.78;100079.78;7395142;19;20416;-90
2024/01/19 07:32:02;;;;;;;5.00;3.42;;;;;;;15.63;27.08;100077.75;7397547;19;20021;-89
2024/01/19 07:34:28;;;;;;;0.70;0.70;;;;;;;16.24;26.76;100081.44;7396048;19;20014;-88
2024/01/19 07:36:54;;;;;;;6.22;1.63;;;;;;;17.12;26.12;100074.28;7393153;19;20023;-88
2024/01/19 07:39:23;;;;;;;3.30;1.52;;;;;;;17.90;25.29;100075.53;7396860;19;20018;-89
2024/01/19 07:41:52;;;;;;;1.10;1.00;;;;;;;17.28;25.55;100077.03;7396547;19;20058;-89
2024/01/19 07:44:19;;;;;;;1.10;1.10;;;;;;;16.49;26.19;100074.84;7396519;19;20042;-88
2024/01/19 07:46:45;;;;;;;12.30;1.60;;;;;;;16.57;26.39;100070.25;7395733;19;20023;-88
2024/01/19 07:49:11;;;;;;;3.50;1.88;;;;;;;16.76;25.93;100076.16;7398846;19;20018;-90
2024/01/19 07:51:38;;;;;;;0.90;0.90;;;;;;;16.90;25.96;100074.31;7397296;19;20014;-89
2024/01/19 07:54:04;;;;;;;4.78;1.95;;;;;;;17.07;25.52;100077.88;7393301;19;20018;-88
2024/01/19 07:56:30;;;;;;;0.20;0.20;;;;;;;16.90;25.68;100083.53;7394191;19;20082;-88
2024/01/19 07:58:56;;;;;;;21.48;3.17;;;;;;;16.51;26.22;100083.56;7399974;19;20010;-88
2024/01/19 08:01:22;;;;;;;0.85;0.85;;;;;;;18.37;24.66;100083.94;7395951;19;20107;-90
2024/01/19 08:03:48;;;;;;;1.83;1.83;;;;;;;15.78;26.79;100084.69;7392099;19;20043;-82
2024/01/19 08:06:14;;;;;;;2.50;1.45;;;;;;;15.54;27.12;100087.16;7391303;19;20011;-81
2024/01/19 08:08:40;;;;;;;1.38;1.30;;;;;;;14.85;27.85;100093.34;7392730;19;20010;-80
2024/01/19 08:11:06;;;;;;;7.47;2.92;;;;;;;12.45;29.77;100107.69;7392336;19;20395;-80
2024/01/19 08:13:32;;;;;;;2.90;2.67;;;;;;;14.99;27.51;100093.19;7391253;19;20018;-80
2024/01/19 08:15:59;;;;;;;0.75;0.75;;;;;;;15.65;26.84;100086.44;7392732;19;20033;-81
2024/01/19 08:18:25;;;;;;;0.93;0.93;;;;;;;14.06;28.78;100090.34;7395845;19;20023;-81
2024/01/19 08:20:51;;;;;;;2.42;2.33;;;;;;;18.07;25.36;100086.72;7393619;19;20022;-80
2024/01/19 08:23:17;;;;;;;1.75;1.75;;;;;;;19.49;24.01;100083.16;7390776;19;20049;-82
2024/01/19 08:25:43;;;;;;;3.58;1.05;;;;;;;16.78;25.87;100092.50;7394516;19;20361;-82
2024/01/19 08:28:09;;;;;;;1.40;1.40;;;;;;;14.83;27.85;100101.50;7396031;19;20330;-84
2024/01/19 08:30:35;;;;;;;6.28;2.55;;;;;;;15.02;27.87;100092.22;7393747;19;20013;-80
2024/01/19 08:33:01;;;;;;;3.40;1.95;;;;;;;14.94;27.51;100096.72;7395890;19;20018;-81
2024/01/19 08:35:27;;;;;;;2.83;2.03;;;;;;;16.14;26.61;100099.84;7391390;19;20379;-81
2024/01/19 08:37:53;;;;;;;2.40;1.80;;;;;;;15.33;27.23;100104.63;7394823;19;20018;-80
2024/01/19 08:40:20;;;;;;;2.47;2.28;;;;;;;16.29;26.23;100106.00;7394214;19;20037;-81
2024/01/19 08:42:46;;;;;;;3.85;2.00;;;;;;;16.35;26.08;100103.22;7390020;19;20010;-81
2024/01/19 08:45:12;;;;;;;13.70;5.15;;;;;;;16.83;26.09;100105.81;7394935;19;20042;-81
2024/01/19 08:47:38;;;;;;;12.80;3.55;;;;;;;17.85;25.14;100107.31;7392699;19;20520;-81
2024/01/19 08:50:05;;;;;;;1.83;1.73;;;;;;;16.41;26.29;100104.75;7391868;19;20015;-81
2024/01/19 08:52:32;;;;;;;3.25;2.95;;;;;;;15.71;26.83;100109.66;7391636;19;20018;-81
2024/01/19 08:54:58;;;;;;;7.43;4.82;;;;;;;15.10;27.57;100112.91;7391190;19;20123;-81
2024/01/19 08:57:24;;;;;;;3.25;2.83;;;;;;;14.92;27.50;100120.94;7391536;19;20011;-83
2024/01/19 08:59:51;;;;;;;29.13;4.55;;;;;;;14.68;27.34;100124.09;7390308;19;20010;-84
2024/01/19 09:02:17;;;;;;;8.35;4.22;;;;;;;13.72;28.94;100127.63;7394636;19;20034;-83
2024/01/19 09:04:43;;;;;;;5.03;2.97;;;;;;;12.11;30.48;100139.06;7392928;19;20245;-85
2024/01/19 09:07:10;;;;;;;5.13;4.28;;;;;;;12.62;30.30;100133.13;7390831;19;20010;-84
2024/01/19 09:09:37;;;;;;;10.20;5.05;;;;;;;13.32;29.37;100123.53;7392644;19;20022;-85
2024/01/19 09:12:03;;;;;;;2.08;1.98;;;;;;;12.65;29.90;100138.50;7390334;19;20026;-84
2024/01/19 09:14:29;;;;;;;10.55;5.53;;;;;;;14.86;28.05;100123.69;7388510;19;20026;-82
2024/01/19 09:16:56;;;;;;;12.70;4.60;;;;;;;12.26;30.54;100133.53;7390221;19;20021;-82
2024/01/19 09:19:22;;;;;;;3.45;3.13;;;;;;;11.32;31.76;100137.94;7389728;19;20018;-81
2024/01/19 09:21:50;;;;;;;4.63;2.85;;;;;;;16.18;28.24;100117.22;7390351;19;20021;-82
2024/01/19 09:24:17;;;;;;;0.98;0.98;;;;;;;18.88;25.51;100116.91;7390154;19;20022;-82
2024/01/19 09:26:44;;;;;;;1.25;1.25;;;;;;;16.77;26.96;100119.09;7390871;19;20019;-82
2024/01/19 09:29:10;;;;;;;2.50;2.38;;;;;;;16.08;28.00;100121.53;7394071;19;20022;-82
2024/01/19 09:31:47;;;;;;;0.73;0.73;;;;;;;16.45;27.87;100116.50;7390610;19;20567;-82
2024/01/19 09:34:16;;;;;;;1.13;1.02;;;;;;;17.31;26.93;100120.28;7389758;19;20376;-82
2024/01/19 09:36:43;;;;;;;1.77;1.67;;;;;;;17.09;27.58;100121.09;7390883;19;20034;-82
2024/01/19 09:39:09;;;;;;;2.78;2.58;;;;;;;15.18;29.33;100116.78;7394310;19;20042;-82
2024/01/19 09:42:02;;;;;;;0.68;0.68;;;;;;;15.48;29.56;100122.09;7390986;19;20402;-83
2024/01/19 09:44:35;;;;;;;0.98;0.98;;;;;;;15.28;29.70;100130.59;7390655;19;20006;-85
2024/01/19 09:47:07;;;;;;;0.75;0.75;;;;;;;15.81;29.48;100127.81;7391178;19;20477;-87
2024/01/19 09:49:46;;;;;;;8.50;1.63;;;;;;;16.97;28.17;100127.25;7389989;19;20018;-82
2024/01/19 09:52:21;;;;;;;0.88;0.88;;;;;;;15.00;30.38;100145.22;7386890;19;20029;-83
2024/01/19 09:54:48;;;;;;;0.65;0.65;;;;;;;14.09;31.91;100139.78;7387736;19;20042;-81
2024/01/19 09:57:14;;;;;;;18.48;1.00;;;;;;;13.82;31.85;100143.03;7388236;19;20015;-80
2024/01/19 09:59:40;;;;;;;1.90;1.35;;;;;;;12.40;34.32;100150.28;7388848;19;20039;-82
2024/01/19 10:04:47;;;;;;;1.30;1.30;;;;;;;12.36;34.59;100143.34;7388117;19;20011;-50
2024/01/19 10:07:14;;;;;;;0.80;0.80;;;;;;;15.00;32.10;100142.44;7391185;19;20561;-50
2024/01/19 10:09:41;;;;;;;1.40;1.35;;;;;;;14.95;32.66;100148.75;7389628;19;20022;-50
2024/01/19 10:12:07;;;;;;;1.55;0.88;;;;;;;16.57;31.26;100137.75;7388479;19;20043;-51
2024/01/19 10:14:33;;;;;;;0.93;0.75;;;;;;;17.10;30.91;100138.75;7389161;19;20014;-50
2024/01/19 10:17:02;;;;;;;0.10;0.10;;;;;;;23.40;25.17;100122.78;7391114;19;20018;-50
2024/01/19 10:19:29;;;;;;;2.42;1.38;;;;;;;22.46;25.69;100131.53;7396595;19;20007;-51
2024/01/19 10:21:56;;;;;;;1.65;1.38;;;;;;;18.71;29.19;100142.44;7391736;19;20479;-50
2024/01/19 10:24:22;;;;;;;1.75;0.75;;;;;;;18.52;29.34;100152.06;7391519;19;20017;-51
2024/01/19 10:26:55;;;;;;;0.43;0.43;;;;;;;15.91;32.62;100149.59;7394048;19;20382;-50
2024/01/19 10:29:22;;;;;;;0.10;0.10;;;;;;;15.67;32.50;100152.03;7401857;19;20416;-50
2024/01/19 10:31:51;;;;;;;0.95;0.95;;;;;;;16.28;32.42;100149.44;7400613;19;20031;-50
2024/01/19 10:34:22;;;;;;;0.60;0.60;;;;;;;23.18;26.66;100143.22;7399950;19;20019;-56
2024/01/19 10:36:50;;;;;;;3.60;0.63;;;;;;;23.73;25.77;100149.50;7396774;19;20018;-57
2024/01/19 10:39:20;;;;;;;0.35;0.35;;;;;;;23.88;25.34;100160.97;7403150;19;20342;-57
2024/01/19 10:41:48;;;;;;;6.63;1.13;;;;;;;26.65;23.92;100146.53;7397824;19;20014;-56
2024/01/19 10:44:19;;;;;;;0.77;0.77;;;;;;;25.93;24.10;100157.09;7399630;19;20437;-56
2024/01/19 10:46:46;;;;;;;2.05;1.25;;;;;;;24.96;24.92;100153.78;7398181;19;20038;-56
2024/01/19 10:49:16;;;;;;;5.05;1.10;;;;;;;25.24;24.24;100150.75;7402756;19;20025;-56
2024/01/19 10:51:44;;;;;;;0.45;0.45;;;;;;;26.19;23.80;100148.09;7398979;19;20520;-56
2024/01/19 10:54:23;;;;;;;1.08;0.98;;;;;;;25.01;24.50;100149.97;7397321;19;20042;-57
2024/01/19 10:57:03;;;;;;;17.73;0.93;;;;;;;24.29;24.99;100157.97;7396902;19;20038;-56
2024/01/19 10:59:30;;;;;;;1.02;0.40;;;;;;;24.37;24.89;100161.59;7403954;19;20525;-56
2024/01/19 11:01:58;;;;;;;0.45;0.45;;;;;;;25.77;23.71;100167.06;7397858;19;20086;-56
2024/01/19 11:04:26;;;;;;;0.82;0.45;;;;;;;24.57;25.17;100171.34;7399460;19;20006;-56
2024/01/19 11:06:52;;;;;;;0.20;0.20;;;;;;;24.28;25.00;100169.94;7396401;19;20045;-56
2024/01/19 11:09:19;;;;;;;0.50;0.50;;;;;;;24.24;25.22;100166.66;7399940;19;20074;-57
2024/01/19 11:11:57;;;;;;;1.65;0.77;;;;;;;24.21;25.79;100164.97;7398231;19;20015;-57
2024/01/19 11:14:25;;;;;;;3.88;0.82;;;;;;;24.46;25.71;100157.44;7396349;19;20106;-57
2024/01/19 11:16:53;;;;;;;3.03;1.45;;;;;;;24.44;25.83;100160.09;7396050;19;20018;-57
2024/01/19 11:19:22;;;;;;;0.30;0.30;;;;;;;24.65;25.85;100152.94;7399113;19;20015;-57
2024/01/19 11:21:49;;;;;;;0.60;0.47;;;;;;;24.76;25.23;100152.59;7396459;19;20070;-57
2024/01/19 11:24:18;;;;;;;2.58;0.65;;;;;;;25.22;25.30;100156.25;7399631;19;20006;-57
2024/01/19 11:26:54;;;;;;;1.13;0.98;;;;;;;25.18;25.50;100153.03;7398518;19;20014;-57
2024/01/19 11:29:30;;;;;;;3.42;1.42;;;;;;;27.34;23.69;100147.53;7401637;19;20014;-57
2024/01/19 11:31:58;;;;;;;1.00;0.57;;;;;;;27.89;23.98;100149.28;7399522;19;20044;-57
2024/01/19 11:34:49;;;;;;;0.38;0.38;;;;;;;27.54;24.16;100162.81;7396538;19;20026;-57
2024/01/19 11:37:44;;;;;;;3.45;1.13;;;;;;;27.61;24.39;100164.88;7393744;19;20018;-57